createdAt,value
2023-04-26T00:01:17.461Z,16.25
2023-04-26T00:04:20.290Z,16.45
2023-04-26T00:07:24.992Z,16.29
2023-04-26T00:10:27.365Z,16.51
2023-04-26T00:13:29.888Z,16.25
2023-04-26T00:16:32.421Z,16.24
2023-04-26T00:19:34.859Z,16.29
2023-04-26T00:22:37.898Z,16.29
2023-04-26T00:25:40.576Z,16.31
2023-04-26T00:28:42.940Z,16.18
2023-04-26T00:31:45.408Z,16.30
2023-04-26T00:34:48.668Z,16.42
2023-04-26T00:37:53.396Z,16.25
2023-04-26T00:40:56.155Z,16.35
2023-04-26T00:43:58.561Z,16.16
2023-04-26T00:47:01.710Z,16.18
2023-04-26T00:50:04.777Z,16.17
2023-04-26T00:53:08.448Z,16.32
2023-04-26T00:56:12.690Z,16.31
2023-04-26T00:59:15.180Z,16.18
2023-04-26T01:02:17.821Z,16.30
2023-04-26T01:05:21.015Z,15.97
2023-04-26T01:08:24.231Z,16.37
2023-04-26T01:11:26.967Z,16.19
2023-04-26T01:14:29.521Z,16.14
2023-04-26T01:17:32.290Z,16.27
2023-04-26T01:20:34.897Z,16.15
2023-04-26T01:23:37.248Z,16.11
2023-04-26T01:26:45.839Z,16.32
2023-04-26T01:29:49.879Z,16.08
2023-04-26T01:32:52.363Z,15.85
2023-04-26T01:35:54.824Z,16.22
2023-04-26T01:38:58.363Z,16.12
2023-04-26T01:42:00.839Z,16.15
2023-04-26T01:45:03.599Z,16.04
2023-04-26T01:48:26.015Z,15.96
2023-04-26T01:51:28.518Z,15.88
2023-04-26T01:54:30.970Z,16.00
2023-04-26T01:57:35.903Z,16.12
2023-04-26T02:00:38.282Z,15.82
2023-04-26T02:03:40.884Z,16.03
2023-04-26T02:06:43.387Z,15.95
2023-04-26T02:09:46.660Z,15.82
2023-04-26T02:12:49.107Z,15.82
2023-04-26T02:15:51.881Z,15.91
2023-04-26T02:18:55.187Z,15.93
2023-04-26T02:21:58.584Z,15.91
2023-04-26T02:25:01.050Z,15.91
2023-04-26T02:28:04.394Z,15.82
2023-04-26T02:31:06.967Z,16.00
2023-04-26T02:34:09.737Z,16.09
2023-04-26T02:37:12.151Z,15.86
2023-04-26T02:40:15.564Z,15.80
2023-04-26T02:43:18.118Z,15.70
2023-04-26T02:46:21.169Z,15.84
2023-04-26T02:49:24.024Z,15.80
2023-04-26T02:52:27.265Z,15.91
2023-04-26T02:55:29.768Z,15.85
2023-04-26T02:58:32.370Z,15.76
2023-04-26T03:01:35.026Z,15.83
2023-04-26T03:04:38.477Z,15.78
2023-04-26T03:07:40.925Z,15.65
2023-04-26T03:10:46.068Z,15.83
2023-04-26T03:13:48.562Z,15.79
2023-04-26T03:16:51.338Z,15.89
2023-04-26T03:19:53.962Z,15.67
2023-04-26T03:22:56.529Z,15.75
2023-04-26T03:25:59.035Z,15.83
2023-04-26T03:29:03.489Z,15.70
2023-04-26T03:32:07.375Z,15.75
2023-04-26T03:35:10.622Z,15.70
2023-04-26T03:38:13.297Z,15.69
2023-04-26T03:41:16.873Z,15.68
2023-04-26T03:44:19.475Z,15.72
2023-04-26T03:47:21.879Z,15.67
2023-04-26T03:50:25.029Z,15.68
2023-04-26T03:53:27.724Z,15.68
2023-04-26T03:56:30.205Z,15.72
2023-04-26T03:59:32.934Z,15.62
2023-04-26T04:02:35.675Z,15.54
2023-04-26T04:05:38.422Z,15.63
2023-04-26T04:08:41.028Z,15.62
2023-04-26T04:11:45.160Z,16.03
2023-04-26T04:14:48.890Z,16.13
2023-04-26T04:17:52.049Z,16.43
2023-04-26T04:20:54.629Z,16.73
2023-04-26T04:23:57.094Z,16.69
2023-04-26T04:27:01.268Z,17.03
2023-04-26T04:30:10.028Z,17.48
2023-04-26T04:33:12.939Z,17.75
2023-04-26T04:36:16.951Z,18.05
2023-04-26T04:39:20.711Z,18.31
2023-04-26T04:42:23.634Z,18.64
2023-04-26T04:45:27.129Z,18.80
2023-04-26T04:48:31.220Z,18.96
2023-04-26T04:51:33.715Z,18.82
2023-04-26T04:54:36.398Z,19.00
2023-04-26T04:57:40.615Z,19.22
2023-04-26T05:00:45.788Z,19.23
2023-04-26T05:03:56.012Z,19.17
2023-04-26T05:06:59.246Z,19.16
2023-04-26T05:10:02.164Z,19.07
2023-04-26T05:13:06.113Z,19.00
2023-04-26T05:16:09.194Z,19.03
2023-04-26T05:19:13.455Z,18.87
2023-04-26T05:22:18.802Z,18.85
2023-04-26T05:25:22.685Z,18.86
2023-04-26T05:28:29.814Z,18.77
2023-04-26T05:31:53.632Z,18.98
2023-04-26T05:35:28.266Z,18.67
2023-04-26T05:38:30.833Z,18.71
2023-04-26T05:41:33.388Z,18.79
2023-04-26T05:44:36.175Z,18.86
2023-04-26T05:47:39.527Z,18.90
2023-04-26T05:50:42.334Z,18.91
2023-04-26T05:53:45.218Z,18.90
2023-04-26T05:56:47.814Z,18.81
2023-04-26T05:59:50.577Z,18.86
2023-04-26T06:02:56.173Z,18.88
2023-04-26T06:05:59.690Z,18.77
2023-04-26T06:09:04.886Z,18.94
2023-04-26T06:12:10.180Z,18.73
2023-04-26T06:15:16.497Z,19.30
2023-04-26T06:18:19.770Z,19.51
2023-04-26T06:21:26.481Z,19.63
2023-04-26T06:24:30.235Z,19.90
2023-04-26T06:27:32.687Z,20.02
2023-04-26T06:30:35.347Z,20.27
2023-04-26T06:33:38.962Z,20.47
2023-04-26T06:36:41.383Z,20.55
2023-04-26T06:39:44.098Z,20.81
2023-04-26T06:42:47.653Z,20.95
2023-04-26T06:46:11.376Z,21.17
2023-04-26T06:49:15.229Z,21.31
2023-04-26T06:52:17.917Z,21.52
2023-04-26T06:55:21.408Z,21.60
2023-04-26T06:58:24.283Z,21.50
2023-04-26T07:01:33.946Z,21.85
2023-04-26T07:04:36.936Z,22.06
2023-04-26T07:07:39.730Z,21.92
2023-04-26T07:10:43.311Z,22.22
2023-04-26T07:17:03.922Z,22.34
2023-04-26T07:20:08.947Z,22.35
2023-04-26T07:23:11.322Z,22.56
2023-04-26T07:26:13.709Z,22.69
2023-04-26T07:29:16.555Z,22.85
2023-04-26T07:32:18.934Z,22.89
2023-04-26T07:35:21.400Z,22.94
2023-04-26T07:38:25.384Z,22.87
2023-04-26T07:41:27.804Z,22.85
2023-04-26T07:44:30.284Z,23.04
2023-04-26T07:47:32.957Z,22.93
2023-04-26T07:50:35.800Z,23.14
2023-04-26T07:53:41.509Z,22.93
2023-04-26T07:56:44.257Z,22.94
2023-04-26T07:59:46.674Z,23.04
2023-04-26T08:02:49.338Z,22.84
2023-04-26T08:05:51.943Z,22.84
2023-04-26T08:08:54.515Z,22.59
2023-04-26T08:11:57.440Z,22.54
2023-04-26T08:15:05.044Z,22.45
2023-04-26T08:18:07.599Z,22.23
2023-04-26T08:21:09.999Z,22.03
2023-04-26T08:24:12.564Z,21.82
2023-04-26T08:27:15.026Z,21.69
2023-04-26T08:30:17.629Z,21.53
2023-04-26T08:33:20.171Z,21.45
2023-04-26T08:36:22.681Z,21.31
2023-04-26T08:39:25.333Z,21.34
2023-04-26T08:42:28.741Z,21.17
2023-04-26T08:45:31.750Z,21.22
2023-04-26T08:48:34.646Z,21.09
2023-04-26T08:54:42.812Z,21.02
2023-04-26T08:57:47.340Z,20.91
2023-04-26T09:00:50.716Z,20.93
2023-04-26T09:03:55.322Z,20.87
2023-04-26T09:07:02.789Z,20.87
2023-04-26T09:10:06.410Z,20.84
2023-04-26T09:13:08.813Z,20.79
2023-04-26T09:16:11.923Z,20.66
2023-04-26T09:19:40.043Z,20.68
2023-04-26T09:22:53.211Z,20.64
2023-04-26T09:26:15.073Z,20.25
2023-04-26T09:29:19.214Z,20.57
2023-04-26T09:32:21.752Z,20.31
2023-04-26T09:35:31.850Z,20.52
2023-04-26T09:38:42.429Z,20.40
2023-04-26T09:41:47.873Z,20.44
2023-04-26T09:44:53.362Z,20.47
2023-04-26T09:47:56.279Z,20.45
2023-04-26T09:51:05.575Z,20.31
2023-04-26T09:54:08.033Z,20.32
2023-04-26T09:57:12.086Z,20.24
2023-04-26T10:00:16.252Z,20.27
2023-04-26T10:03:23.379Z,20.23
2023-04-26T10:06:28.665Z,20.25
2023-04-26T10:09:31.870Z,20.16
2023-04-26T10:12:34.459Z,20.17
2023-04-26T10:15:37.248Z,20.15
2023-04-26T10:18:39.628Z,20.12
2023-04-26T10:21:44.144Z,20.14
2023-04-26T10:24:46.962Z,20.06
2023-04-26T10:27:50.117Z,20.01
2023-04-26T10:30:59.928Z,20.00
2023-04-26T10:34:21.656Z,19.94
2023-04-26T10:37:24.156Z,20.02
2023-04-26T10:40:38.979Z,20.25
2023-04-26T10:43:43.034Z,20.38
2023-04-26T10:46:51.494Z,20.48
2023-04-26T10:50:06.190Z,20.65
2023-04-26T10:53:14.846Z,21.00
2023-04-26T10:56:23.605Z,21.13
2023-04-26T11:02:52.377Z,21.38
2023-04-26T11:05:55.859Z,21.40
2023-04-26T11:09:00.135Z,21.46
2023-04-26T11:12:12.903Z,21.53
2023-04-26T11:15:15.439Z,21.57
2023-04-26T11:18:21.093Z,21.59
2023-04-26T11:21:23.553Z,21.59
2023-04-26T11:24:27.167Z,21.67
2023-04-26T11:27:29.485Z,21.75
2023-04-26T11:30:40.430Z,21.63
2023-04-26T11:33:42.831Z,21.62
2023-04-26T11:36:46.525Z,21.77
2023-04-26T11:39:49.052Z,21.80
2023-04-26T11:42:51.396Z,21.83
2023-04-26T11:45:59.057Z,21.94
2023-04-26T11:49:01.470Z,21.95
2023-04-26T11:52:05.315Z,22.01
2023-04-26T11:55:08.275Z,21.89
2023-04-26T11:58:12.953Z,21.97
2023-04-26T12:01:26.667Z,22.05
2023-04-26T12:04:30.794Z,22.10
2023-04-26T12:07:39.721Z,22.03
2023-04-26T12:10:42.375Z,22.14
2023-04-26T12:13:46.649Z,21.96
2023-04-26T12:16:49.304Z,21.82
2023-04-26T12:19:51.870Z,21.59
2023-04-26T12:23:01.748Z,21.27
2023-04-26T12:26:04.979Z,21.17
2023-04-26T12:29:07.588Z,20.87
2023-04-26T12:32:10.050Z,20.78
2023-04-26T12:35:12.433Z,20.64
2023-04-26T12:38:15.869Z,20.62
2023-04-26T12:41:18.329Z,20.51
2023-04-26T12:44:22.525Z,20.40
2023-04-26T12:47:25.317Z,20.29
2023-04-26T12:50:27.793Z,20.19
2023-04-26T12:53:30.356Z,20.14
2023-04-26T12:56:34.177Z,20.01
2023-04-26T12:59:36.576Z,20.03
2023-04-26T13:02:39.147Z,19.94
2023-04-26T13:05:41.612Z,19.89
2023-04-26T13:08:43.965Z,19.81
2023-04-26T13:11:46.939Z,19.77
2023-04-26T13:14:49.394Z,19.72
2023-04-26T13:17:51.869Z,19.62
2023-04-26T13:20:54.437Z,19.62
2023-04-26T13:23:56.950Z,19.51
2023-04-26T13:26:59.714Z,19.54
2023-04-26T13:30:02.174Z,19.51
2023-04-26T13:33:04.924Z,19.32
2023-04-26T13:36:07.641Z,19.36
2023-04-26T13:39:10.320Z,19.36
2023-04-26T13:42:14.252Z,19.27
2023-04-26T13:45:18.768Z,19.32
2023-04-26T13:48:21.899Z,19.21
2023-04-26T13:51:27.486Z,19.30
2023-04-26T13:54:30.685Z,19.32
2023-04-26T13:57:33.041Z,19.62
2023-04-26T14:00:35.777Z,19.78
2023-04-26T14:03:38.288Z,20.07
2023-04-26T14:06:41.129Z,20.24
2023-04-26T14:09:43.529Z,20.34
2023-04-26T14:12:46.122Z,20.54
2023-04-26T14:15:48.551Z,20.63
2023-04-26T14:18:51.618Z,20.67
2023-04-26T14:21:55.411Z,20.43
2023-04-26T14:24:57.861Z,20.34
2023-04-26T14:28:01.403Z,20.25
2023-04-26T14:31:03.950Z,20.08
2023-04-26T14:34:06.921Z,19.95
2023-04-26T14:37:09.385Z,19.83
2023-04-26T14:40:12.263Z,19.83
2023-04-26T14:43:14.627Z,19.71
2023-04-26T14:46:17.140Z,19.60
2023-04-26T14:49:19.938Z,19.56
2023-04-26T14:52:26.921Z,19.49
2023-04-26T14:55:29.560Z,19.44
2023-04-26T14:58:31.948Z,19.44
2023-04-26T15:01:34.474Z,19.44
2023-04-26T15:04:38.026Z,19.37
2023-04-26T15:07:40.896Z,19.39
2023-04-26T15:10:43.312Z,19.25
2023-04-26T15:13:46.158Z,19.31
2023-04-26T15:16:48.680Z,19.07
2023-04-26T15:19:51.166Z,19.12
2023-04-26T15:22:53.569Z,19.08
2023-04-26T15:25:56.438Z,19.06
2023-04-26T15:29:24.187Z,19.04
2023-04-26T15:32:26.824Z,18.97
2023-04-26T15:35:29.332Z,18.97
2023-04-26T15:38:32.124Z,18.93
2023-04-26T15:41:34.613Z,18.83
2023-04-26T15:44:37.062Z,18.74
2023-04-26T15:47:39.568Z,18.75
2023-04-26T15:50:42.180Z,18.73
2023-04-26T15:53:44.590Z,18.72
2023-04-26T15:56:47.208Z,18.59
2023-04-26T15:59:49.546Z,18.53
2023-04-26T16:02:52.181Z,18.55
2023-04-26T16:05:54.662Z,18.29
2023-04-26T16:08:57.132Z,18.51
2023-04-26T16:11:59.484Z,18.51
2023-04-26T16:15:01.814Z,18.41
2023-04-26T16:18:04.365Z,18.37
2023-04-26T16:21:09.541Z,18.45
2023-04-26T16:24:12.416Z,18.44
2023-04-26T16:27:14.880Z,18.39
2023-04-26T16:30:18.985Z,18.33
2023-04-26T16:33:23.213Z,18.28
2023-04-26T16:36:25.917Z,18.34
2023-04-26T16:39:28.754Z,18.28
2023-04-26T16:42:31.130Z,18.29
2023-04-26T16:45:33.472Z,18.27
2023-04-26T16:48:37.210Z,18.14
2023-04-26T16:51:39.660Z,18.18
2023-04-26T16:54:42.199Z,18.18
2023-04-26T16:57:44.602Z,18.12
2023-04-26T17:00:47.255Z,18.07
2023-04-26T17:03:49.803Z,18.07
2023-04-26T17:06:52.348Z,18.04
2023-04-26T17:09:55.395Z,17.93
2023-04-26T17:12:57.805Z,17.98
2023-04-26T17:16:00.289Z,17.96
2023-04-26T17:19:02.657Z,17.93
2023-04-26T17:22:06.341Z,17.92
2023-04-26T17:25:09.050Z,17.79
2023-04-26T17:28:11.769Z,17.86
2023-04-26T17:31:14.174Z,17.82
2023-04-26T17:34:17.072Z,17.80
2023-04-26T17:37:19.571Z,17.79
2023-04-26T17:40:21.972Z,17.70
2023-04-26T17:43:24.382Z,17.73
2023-04-26T17:46:26.742Z,17.68
2023-04-26T17:49:29.300Z,17.65
2023-04-26T17:52:32.173Z,17.65
2023-04-26T17:55:34.680Z,17.64
2023-04-26T17:58:37.131Z,17.60
2023-04-26T18:01:39.528Z,17.47
2023-04-26T18:04:42.844Z,17.48
2023-04-26T18:07:45.546Z,17.51
2023-04-26T18:10:48.691Z,17.46
2023-04-26T18:13:51.156Z,17.38
2023-04-26T18:16:53.726Z,17.45
2023-04-26T18:19:56.514Z,17.43
2023-04-26T18:22:58.886Z,17.39
2023-04-26T18:26:01.231Z,17.27
2023-04-26T18:29:03.629Z,17.35
2023-04-26T18:32:06.038Z,17.25
2023-04-26T18:35:09.613Z,17.24
2023-04-26T18:38:11.997Z,17.28
2023-04-26T18:41:14.374Z,17.26
2023-04-26T18:44:16.946Z,17.24
2023-04-26T18:47:19.294Z,17.23
2023-04-26T18:50:21.906Z,17.19
2023-04-26T18:53:24.458Z,17.16
2023-04-26T18:56:27.947Z,17.05
2023-04-26T18:59:30.570Z,17.12
2023-04-26T19:02:34.450Z,17.10
2023-04-26T19:05:42.185Z,16.98
2023-04-26T19:08:45.130Z,17.07
2023-04-26T19:11:47.709Z,16.94
2023-04-26T19:14:50.264Z,16.99
2023-04-26T19:17:52.803Z,17.01
2023-04-26T19:20:55.684Z,16.97
2023-04-26T19:23:58.606Z,16.94
2023-04-26T19:27:02.883Z,16.95
2023-04-26T19:30:06.952Z,16.82
2023-04-26T19:33:09.473Z,16.88
2023-04-26T19:36:12.056Z,16.84
2023-04-26T19:39:16.170Z,16.82
2023-04-26T19:42:19.337Z,16.88
2023-04-26T19:45:22.742Z,16.86
2023-04-26T19:48:26.390Z,16.77
2023-04-26T19:51:28.974Z,16.70
2023-04-26T19:54:32.401Z,16.77
2023-04-26T19:57:35.001Z,16.65
2023-04-26T20:00:38.696Z,16.76
2023-04-26T20:03:41.610Z,16.75
2023-04-26T20:06:44.297Z,16.71
2023-04-26T20:09:46.790Z,16.71
2023-04-26T20:12:49.670Z,16.62
2023-04-26T20:15:52.258Z,16.61
2023-04-26T20:18:54.839Z,16.59
2023-04-26T20:21:57.353Z,16.57
2023-04-26T20:24:59.887Z,16.59
2023-04-26T20:28:04.077Z,16.52
2023-04-26T20:31:06.699Z,16.56
2023-04-26T20:34:09.002Z,16.57
2023-04-26T20:37:11.921Z,16.45
2023-04-26T20:40:14.357Z,16.55
2023-04-26T20:43:16.840Z,16.43
2023-04-26T20:46:19.250Z,16.51
2023-04-26T20:49:21.680Z,16.42
2023-04-26T20:52:24.091Z,16.38
2023-04-26T20:55:26.869Z,16.45
2023-04-26T20:58:29.919Z,16.37
2023-04-26T21:01:33.894Z,16.42
2023-04-26T21:04:38.684Z,16.40
2023-04-26T21:07:41.424Z,16.39
2023-04-26T21:10:43.822Z,16.37
2023-04-26T21:13:47.090Z,16.33
2023-04-26T21:16:49.395Z,16.25
2023-04-26T21:19:53.681Z,16.29
2023-04-26T21:22:56.132Z,16.31
2023-04-26T21:25:58.503Z,16.32
2023-04-26T21:29:01.120Z,16.16
2023-04-26T21:32:03.847Z,16.19
2023-04-26T21:35:07.552Z,16.25
2023-04-26T21:38:09.914Z,16.25
2023-04-26T21:41:12.309Z,16.20
2023-04-26T21:44:14.681Z,16.16
2023-04-26T21:47:17.073Z,16.20
2023-04-26T21:50:19.649Z,16.06
2023-04-26T21:53:21.992Z,16.11
2023-04-26T21:56:24.377Z,16.11
2023-04-26T21:59:26.781Z,16.13
2023-04-26T22:02:29.266Z,16.16
2023-04-26T22:05:31.655Z,16.13
2023-04-26T22:08:34.736Z,16.07
2023-04-26T22:11:37.197Z,16.11
2023-04-26T22:14:39.499Z,16.08
2023-04-26T22:17:41.892Z,16.04
2023-04-26T22:20:44.314Z,16.09
2023-04-26T22:23:46.655Z,16.00
2023-04-26T22:26:49.053Z,15.91
2023-04-26T22:29:51.444Z,16.02
2023-04-26T22:32:55.629Z,16.02
2023-04-26T22:35:59.294Z,15.98
2023-04-26T22:39:01.896Z,16.02
2023-04-26T22:42:04.328Z,15.94
2023-04-26T22:45:07.873Z,15.97
2023-04-26T22:48:10.250Z,15.92
2023-04-26T22:51:12.661Z,15.95
2023-04-26T22:54:15.007Z,15.90
2023-04-26T22:57:18.482Z,15.88
2023-04-26T23:00:22.076Z,15.93
2023-04-26T23:03:24.984Z,15.82
2023-04-26T23:06:28.082Z,15.81
2023-04-26T23:09:30.462Z,15.85
2023-04-26T23:12:33.448Z,15.78
2023-04-26T23:15:35.789Z,15.81
2023-04-26T23:18:38.116Z,15.78
2023-04-26T23:21:40.673Z,15.76
2023-04-26T23:24:42.991Z,15.80
2023-04-26T23:27:45.742Z,15.79
2023-04-26T23:30:48.639Z,15.71
2023-04-26T23:33:51.162Z,15.75
2023-04-26T23:36:53.525Z,15.64
2023-04-26T23:39:55.876Z,15.72
2023-04-26T23:42:58.217Z,15.63
2023-04-26T23:46:00.599Z,15.70
2023-04-26T23:49:02.991Z,15.69
2023-04-26T23:52:05.470Z,15.68
2023-04-26T23:55:08.229Z,15.67
2023-04-26T23:58:10.580Z,15.59
